Time;durP1;ratioP1;P1;durP2;ratioP2;P2;SDS_P1;SDS_P2;PMS_P1;PMS_P2;Temp;Humidity;BMP_temperature;BMP_pressure;BME280_temperature;BME280_humidity;BME280_pressure;Samples;Min_cycle;Max_cycle;Signal;HPM_P1;HPM_P2
2023/09/27 00:01:42;;;;;;;;;;;13.20;99.90;;;;;;5076013;28;19915;-55
2023/09/27 00:04:08;;;;;;;;;;;13.20;99.90;;;;;;5075572;28;19909;-55
2023/09/27 00:06:34;;;;;;;;;;;13.20;99.90;;;;;;5075599;28;19915;-55
2023/09/27 00:09:00;;;;;;;;;;;13.10;99.90;;;;;;5075906;28;20020;-55
2023/09/27 00:11:26;;;;;;;;;;;13.10;99.90;;;;;;5075773;28;19908;-55
2023/09/27 00:13:52;;;;;;;;;;;13.00;99.90;;;;;;5075430;28;19919;-55
2023/09/27 00:16:18;;;;;;;;;;;13.00;99.90;;;;;;5075803;28;20097;-55
2023/09/27 00:18:45;;;;;;;;;;;13.00;99.90;;;;;;5075857;28;19905;-55
2023/09/27 00:21:11;;;;;;;;;;;13.00;99.90;;;;;;5075562;28;19938;-55
2023/09/27 00:23:37;;;;;;;;;;;13.00;99.90;;;;;;5075814;28;19912;-55
2023/09/27 00:26:03;;;;;;;;;;;12.90;99.90;;;;;;5075739;28;20002;-55
2023/09/27 00:28:29;;;;;;;;;;;13.00;99.90;;;;;;5075390;28;19905;-55
2023/09/27 00:30:55;;;;;;;;;;;13.00;99.90;;;;;;5075685;28;20265;-55
2023/09/27 00:33:21;;;;;;;;;;;12.90;99.90;;;;;;5075577;28;19908;-55
2023/09/27 00:35:48;;;;;;;;;;;12.90;99.90;;;;;;5076549;28;19909;-55
2023/09/27 00:38:13;;;;;;;;;;;12.90;99.90;;;;;;5079381;28;19908;-56
2023/09/27 00:40:46;;;;;;;;;;;12.90;99.90;;;;;;5079749;28;19916;-55
2023/09/27 00:43:28;;;;;;;;;;;12.90;99.90;;;;;;5061278;28;20384;-55
2023/09/27 00:45:57;;;;;;;;;;;12.80;99.90;;;;;;5079388;28;19990;-55
2023/09/27 00:48:23;;;;;;;;;;;12.90;99.90;;;;;;5061539;28;19915;-55
2023/09/27 00:50:50;;;;;;;;;;;12.70;99.90;;;;;;5061196;28;20293;-55
2023/09/27 00:53:16;;;;;;;;;;;12.80;99.90;;;;;;5061406;28;20319;-55
2023/09/27 00:55:41;;;;;;;;;;;12.80;99.90;;;;;;5079199;28;19958;-55
2023/09/27 00:58:07;;;;;;;;;;;12.80;99.90;;;;;;5074788;28;19908;-55
2023/09/27 01:00:33;;;;;;;;;;;12.80;99.90;;;;;;5059195;28;20411;-55
2023/09/27 01:02:59;;;;;;;;;;;12.70;99.90;;;;;;5058862;28;20071;-55
2023/09/27 01:05:25;;;;;;;;;;;12.90;99.90;;;;;;5058864;28;19916;-55
2023/09/27 01:07:51;;;;;;;;;;;12.80;99.90;;;;;;5058907;28;19913;-55
2023/09/27 01:10:17;;;;;;;;;;;12.80;99.90;;;;;;5058685;28;20374;-55
2023/09/27 01:12:43;;;;;;;;;;;12.70;99.90;;;;;;5058978;28;19908;-55
2023/09/27 01:15:09;;;;;;;;;;;12.50;99.90;;;;;;5058746;28;20274;-55
2023/09/27 01:17:35;;;;;;;;;;;12.50;99.90;;;;;;5041089;28;20373;-55
2023/09/27 01:20:01;;;;;;;;;;;12.50;99.90;;;;;;5040694;28;19987;-55
2023/09/27 01:22:27;;;;;;;;;;;12.40;99.90;;;;;;5058735;28;19948;-55
2023/09/27 01:24:53;;;;;;;;;;;12.40;99.90;;;;;;5040801;28;20003;-55
2023/09/27 01:27:19;;;;;;;;;;;12.40;99.90;;;;;;5058519;28;19915;-55
2023/09/27 01:29:45;;;;;;;;;;;12.40;99.90;;;;;;5040497;28;19931;-55
2023/09/27 01:32:11;;;;;;;;;;;12.40;99.90;;;;;;5058611;28;19912;-55
2023/09/27 01:34:37;;;;;;;;;;;12.40;99.90;;;;;;5058316;28;19908;-55
2023/09/27 01:37:03;;;;;;;;;;;12.40;99.90;;;;;;5058565;28;19915;-55
2023/09/27 01:39:30;;;;;;;;;;;12.30;99.90;;;;;;5040486;28;20475;-55
2023/09/27 01:41:56;;;;;;;;;;;12.30;99.90;;;;;;5057883;28;19909;-55
2023/09/27 01:44:22;;;;;;;;;;;12.40;99.90;;;;;;5058263;28;20393;-55
2023/09/27 01:46:48;;;;;;;;;;;12.50;99.90;;;;;;5040031;28;19905;-55
2023/09/27 01:49:14;;;;;;;;;;;12.40;99.90;;;;;;5039714;28;19916;-55
2023/09/27 01:51:39;;;;;;;;;;;12.30;99.90;;;;;;5058121;28;19939;-55
2023/09/27 01:54:05;;;;;;;;;;;12.20;99.90;;;;;;5057899;28;19919;-55
2023/09/27 01:56:32;;;;;;;;;;;12.10;99.90;;;;;;5057892;28;19999;-55
2023/09/27 01:58:58;;;;;;;;;;;12.00;99.90;;;;;;5050878;28;19936;-55
2023/09/27 02:01:24;;;;;;;;;;;12.10;99.90;;;;;;5060195;28;19904;-55
2023/09/27 02:03:50;;;;;;;;;;;12.10;99.90;;;;;;5077830;28;19916;-55
2023/09/27 02:06:15;;;;;;;;;;;12.10;99.90;;;;;;5077812;28;19915;-55
2023/09/27 02:08:42;;;;;;;;;;;12.10;99.90;;;;;;5077581;28;19959;-55
2023/09/27 02:11:09;;;;;;;;;;;12.20;99.90;;;;;;5059687;28;19912;-55
2023/09/27 02:13:35;;;;;;;;;;;12.10;99.90;;;;;;5076407;28;19916;-55
2023/09/27 02:16:01;;;;;;;;;;;12.10;99.90;;;;;;5076414;28;19904;-55
2023/09/27 02:18:26;;;;;;;;;;;12.00;99.90;;;;;;5076399;28;19987;-55
2023/09/27 02:20:52;;;;;;;;;;;12.10;99.90;;;;;;5076390;28;19909;-55
2023/09/27 02:23:18;;;;;;;;;;;12.00;99.90;;;;;;5077716;28;19908;-55
2023/09/27 02:25:44;;;;;;;;;;;12.00;99.90;;;;;;5077481;28;19908;-55
2023/09/27 02:28:10;;;;;;;;;;;12.00;99.90;;;;;;5076238;28;20002;-55
2023/09/27 02:30:36;;;;;;;;;;;12.00;99.90;;;;;;5077246;28;19947;-55
2023/09/27 02:33:02;;;;;;;;;;;11.90;99.90;;;;;;5077287;28;19919;-55
2023/09/27 02:35:28;;;;;;;;;;;11.90;99.90;;;;;;5076355;28;19915;-55
2023/09/27 02:37:53;;;;;;;;;;;11.80;99.90;;;;;;5077654;28;19908;-55
2023/09/27 02:40:19;;;;;;;;;;;11.70;99.90;;;;;;5076968;28;19908;-55
2023/09/27 02:42:48;;;;;;;;;;;11.80;99.90;;;;;;5076990;28;20349;-55
2023/09/27 02:45:14;;;;;;;;;;;11.80;99.90;;;;;;5077243;28;19916;-55
2023/09/27 02:47:43;;;;;;;;;;;11.70;99.90;;;;;;5075588;28;19909;-55
2023/09/27 02:50:09;;;;;;;;;;;11.60;99.90;;;;;;5059212;28;19955;-55
2023/09/27 02:52:36;;;;;;;;;;;11.70;99.90;;;;;;5077036;28;19938;-55
2023/09/27 02:55:01;;;;;;;;;;;11.70;99.90;;;;;;5076801;28;20384;-55
2023/09/27 02:57:27;;;;;;;;;;;11.70;99.90;;;;;;5076673;28;19908;-55
2023/09/27 02:59:53;;;;;;;;;;;11.90;99.90;;;;;;5057001;28;19916;-55
2023/09/27 03:02:20;;;;;;;;;;;11.80;99.90;;;;;;5055416;28;19909;-55
2023/09/27 03:04:47;;;;;;;;;;;11.80;99.90;;;;;;5038853;28;19909;-55
2023/09/27 03:07:14;;;;;;;;;;;11.80;99.90;;;;;;5038880;28;19912;-55
2023/09/27 03:09:41;;;;;;;;;;;11.70;99.90;;;;;;5038666;28;19963;-55
2023/09/27 03:12:08;;;;;;;;;;;11.60;99.90;;;;;;5038578;28;20391;-55
2023/09/27 03:14:34;;;;;;;;;;;11.60;99.90;;;;;;5038811;28;19909;-55
2023/09/27 03:17:00;;;;;;;;;;;11.70;99.90;;;;;;5038541;28;19919;-55
2023/09/27 03:19:27;;;;;;;;;;;11.80;99.90;;;;;;5038518;28;20354;-55
2023/09/27 03:21:53;;;;;;;;;;;11.70;99.90;;;;;;5038755;28;19916;-55
2023/09/27 03:24:19;;;;;;;;;;;11.60;99.90;;;;;;5038311;28;19913;-55
2023/09/27 03:26:46;;;;;;;;;;;11.70;99.90;;;;;;5038618;28;19908;-55
2023/09/27 03:29:12;;;;;;;;;;;11.60;99.90;;;;;;5038495;28;19912;-55
2023/09/27 03:31:38;;;;;;;;;;;11.70;99.90;;;;;;5038078;28;19913;-55
2023/09/27 03:34:05;;;;;;;;;;;11.70;99.90;;;;;;5038361;28;19919;-55
2023/09/27 03:36:31;;;;;;;;;;;11.70;99.90;;;;;;5038345;28;19909;-55
2023/09/27 03:38:57;;;;;;;;;;;11.70;99.90;;;;;;5038120;28;19930;-55
2023/09/27 03:41:22;;;;;;;;;;;11.60;99.90;;;;;;5038344;28;19915;-55
2023/09/27 03:43:50;;;;;;;;;;;11.70;99.90;;;;;;5038169;28;20015;-55
2023/09/27 03:46:16;;;;;;;;;;;11.70;99.90;;;;;;5055845;28;19909;-55
2023/09/27 03:48:41;;;;;;;;;;;11.50;99.90;;;;;;5056007;28;19921;-55
2023/09/27 03:51:07;;;;;;;;;;;11.50;99.90;;;;;;5038090;28;20362;-55
2023/09/27 03:53:33;;;;;;;;;;;11.50;99.90;;;;;;5037878;28;20003;-55
2023/09/27 03:55:59;;;;;;;;;;;11.50;99.90;;;;;;5038090;28;19909;-55
2023/09/27 03:58:25;;;;;;;;;;;11.60;99.90;;;;;;5044185;28;20325;-55
2023/09/27 04:00:51;;;;;;;;;;;11.50;99.90;;;;;;5075586;28;20270;-55
2023/09/27 04:03:17;;;;;;;;;;;11.50;99.90;;;;;;5075725;28;19915;-55
2023/09/27 04:05:44;;;;;;;;;;;11.40;99.90;;;;;;5075980;28;19947;-55
2023/09/27 04:08:11;;;;;;;;;;;11.40;99.90;;;;;;5074461;28;19912;-55
2023/09/27 04:10:37;;;;;;;;;;;11.30;99.90;;;;;;5073818;28;20003;-55
2023/09/27 04:13:04;;;;;;;;;;;11.20;99.90;;;;;;5075492;28;19993;-55
2023/09/27 04:15:29;;;;;;;;;;;11.10;99.90;;;;;;5075633;28;19912;-55
2023/09/27 04:17:55;;;;;;;;;;;11.10;99.90;;;;;;5075512;28;20391;-55
2023/09/27 04:20:21;;;;;;;;;;;11.10;99.90;;;;;;5075780;28;19908;-55
2023/09/27 04:22:48;;;;;;;;;;;11.00;99.90;;;;;;5075815;28;20241;-55
2023/09/27 04:25:15;;;;;;;;;;;11.00;99.90;;;;;;5075553;28;20350;-55
2023/09/27 04:27:41;;;;;;;;;;;10.90;99.90;;;;;;5075646;28;19908;-55
2023/09/27 04:30:11;;;;;;;;;;;10.90;99.90;;;;;;5075197;28;19905;-55
2023/09/27 04:32:41;;;;;;;;;;;10.80;99.90;;;;;;5075305;28;19961;-55
2023/09/27 04:35:08;;;;;;;;;;;10.90;99.90;;;;;;5075607;28;20378;-55
2023/09/27 04:37:37;;;;;;;;;;;10.90;99.90;;;;;;5075482;28;19913;-55
2023/09/27 04:40:13;;;;;;;;;;;10.90;99.90;;;;;;5075123;28;20456;-55
2023/09/27 04:42:40;;;;;;;;;;;10.90;99.90;;;;;;5075312;28;20022;-55
2023/09/27 04:45:06;;;;;;;;;;;10.90;99.90;;;;;;5075419;28;19909;-55
2023/09/27 04:47:32;;;;;;;;;;;10.80;99.90;;;;;;5074977;28;19913;-55
2023/09/27 04:49:58;;;;;;;;;;;10.90;99.90;;;;;;5075547;28;19911;-55
2023/09/27 04:52:24;;;;;;;;;;;10.90;99.90;;;;;;5075216;28;20358;-55
2023/09/27 04:54:54;;;;;;;;;;;10.90;99.90;;;;;;5075036;28;19948;-55
2023/09/27 04:57:20;;;;;;;;;;;10.90;99.90;;;;;;5075253;28;19916;-55
2023/09/27 04:59:46;;;;;;;;;;;10.90;99.90;;;;;;5057331;28;19909;-55
2023/09/27 05:02:12;;;;;;;;;;;10.90;99.90;;;;;;5055015;28;20316;-55
2023/09/27 05:04:37;;;;;;;;;;;11.00;99.90;;;;;;5055074;28;19932;-55
2023/09/27 05:07:03;;;;;;;;;;;11.10;99.90;;;;;;5055326;28;19913;-56
2023/09/27 05:09:29;;;;;;;;;;;11.20;99.90;;;;;;5055015;28;19912;-54
2023/09/27 05:11:55;;;;;;;;;;;11.30;99.90;;;;;;5053791;28;19959;-54
2023/09/27 05:14:21;;;;;;;;;;;11.50;99.90;;;;;;5055408;28;19909;-54
2023/09/27 05:16:46;;;;;;;;;;;11.70;99.90;;;;;;5054469;28;19958;-54
2023/09/27 05:19:12;;;;;;;;;;;11.90;99.90;;;;;;5054738;28;19935;-54
2023/09/27 05:21:38;;;;;;;;;;;12.00;99.90;;;;;;5055423;28;19908;-54
2023/09/27 05:24:04;;;;;;;;;;;12.30;99.90;;;;;;5057768;28;19908;-54
2023/09/27 05:26:30;;;;;;;;;;;12.50;99.90;;;;;;5058166;28;20342;-54
2023/09/27 05:28:56;;;;;;;;;;;12.70;99.90;;;;;;5057583;28;19913;-54
2023/09/27 05:31:22;;;;;;;;;;;12.70;99.90;;;;;;5056863;28;20601;-54
2023/09/27 05:33:48;;;;;;;;;;;12.40;99.90;;;;;;5058846;28;19955;-54
2023/09/27 05:36:14;;;;;;;;;;;12.40;99.90;;;;;;5058994;28;20377;-54
2023/09/27 05:38:40;;;;;;;;;;;12.50;99.90;;;;;;5058473;28;20350;-54
2023/09/27 05:41:06;;;;;;;;;;;12.60;99.90;;;;;;5058029;28;20018;-54
2023/09/27 05:43:32;;;;;;;;;;;12.50;99.90;;;;;;5058222;28;19920;-54
2023/09/27 05:45:57;;;;;;;;;;;12.60;99.90;;;;;;5055308;28;19909;-54
2023/09/27 05:48:24;;;;;;;;;;;12.80;99.90;;;;;;5057862;28;19916;-54
2023/09/27 05:50:50;;;;;;;;;;;13.10;99.90;;;;;;5057718;28;19920;-54
2023/09/27 05:53:18;;;;;;;;;;;13.40;99.90;;;;;;5058076;28;19909;-54
2023/09/27 05:55:44;;;;;;;;;;;13.50;99.90;;;;;;5058062;28;19912;-55
2023/09/27 05:58:10;;;;;;;;;;;13.80;99.90;;;;;;5056209;28;19909;-54
2023/09/27 06:00:40;;;;;;;;;;;13.90;99.90;;;;;;5038137;28;19931;-55
2023/09/27 06:03:07;;;;;;;;;;;14.30;99.90;;;;;;5048965;28;20269;-55
2023/09/27 06:05:33;;;;;;;;;;;14.70;99.90;;;;;;5057761;28;19939;-55
2023/09/27 06:07:59;;;;;;;;;;;14.90;99.90;;;;;;5057274;28;20273;-55
2023/09/27 06:10:24;;;;;;;;;;;15.10;99.90;;;;;;5054166;28;19912;-55
2023/09/27 06:12:50;;;;;;;;;;;15.30;99.90;;;;;;5051095;28;19909;-55
2023/09/27 06:15:17;;;;;;;;;;;15.20;99.90;;;;;;5046241;28;19949;-55
2023/09/27 06:17:43;;;;;;;;;;;15.60;99.90;;;;;;5036848;28;19909;-55
2023/09/27 06:20:19;;;;;;;;;;;15.90;99.90;;;;;;5046418;28;19916;-55
2023/09/27 06:22:48;;;;;;;;;;;16.30;99.90;;;;;;5037458;28;20015;-55
2023/09/27 06:25:15;;;;;;;;;;;16.80;99.90;;;;;;5056177;28;20508;-55
2023/09/27 06:27:40;;;;;;;;;;;16.90;99.90;;;;;;5056878;28;19909;-55
2023/09/27 06:30:07;;;;;;;;;;;17.10;99.90;;;;;;5056483;28;19970;-55
2023/09/27 06:32:39;;;;;;;;;;;17.20;99.90;;;;;;5055098;28;19920;-55
2023/09/27 06:35:12;;;;;;;;;;;17.50;99.90;;;;;;5054760;28;19908;-55
2023/09/27 06:37:49;;;;;;;;;;;18.00;99.90;;;;;;5050405;28;19916;-55
2023/09/27 06:40:24;;;;;;;;;;;18.20;99.90;;;;;;5047923;28;20371;-55
2023/09/27 06:42:50;;;;;;;;;;;18.40;99.90;;;;;;5050581;28;19909;-55
2023/09/27 06:45:16;;;;;;;;;;;18.60;99.90;;;;;;5052873;28;20247;-55
2023/09/27 06:47:46;;;;;;;;;;;18.60;99.50;;;;;;5057378;28;19917;-55
2023/09/27 06:50:12;;;;;;;;;;;18.60;99.00;;;;;;5057048;28;19919;-55
2023/09/27 06:52:40;;;;;;;;;;;18.70;98.60;;;;;;5057058;28;20301;-55
2023/09/27 06:55:13;;;;;;;;;;;19.00;98.60;;;;;;5057212;28;20269;-55
2023/09/27 06:57:44;;;;;;;;;;;19.10;98.60;;;;;;5057441;28;19909;-55
2023/09/27 07:00:13;;;;;;;;;;;19.60;97.50;;;;;;5051947;28;20354;-55
2023/09/27 07:02:42;;;;;;;;;;;20.10;96.80;;;;;;5056851;28;20003;-55
2023/09/27 07:05:08;;;;;;;;;;;19.70;96.00;;;;;;5055571;28;19908;-55
2023/09/27 07:07:34;;;;;;;;;;;20.00;96.50;;;;;;5056118;28;19928;-55
2023/09/27 07:10:00;;;;;;;;;;;20.20;95.90;;;;;;5056688;28;20358;-55
2023/09/27 07:12:26;;;;;;;;;;;20.20;94.80;;;;;;5056207;28;20354;-55
2023/09/27 07:14:52;;;;;;;;;;;20.40;94.40;;;;;;5056323;28;20412;-55
2023/09/27 07:17:17;;;;;;;;;;;20.60;93.80;;;;;;5055066;28;20354;-55
2023/09/27 07:19:43;;;;;;;;;;;21.10;94.10;;;;;;5056095;28;19909;-55
2023/09/27 07:22:10;;;;;;;;;;;21.30;92.20;;;;;;5056084;28;19908;-55
2023/09/27 07:24:36;;;;;;;;;;;21.30;92.40;;;;;;5056028;28;19915;-55
2023/09/27 07:27:02;;;;;;;;;;;21.50;92.00;;;;;;5055534;28;19929;-55
2023/09/27 07:29:28;;;;;;;;;;;21.70;91.30;;;;;;5054574;28;19925;-55
2023/09/27 07:31:54;;;;;;;;;;;22.00;91.70;;;;;;5056468;28;19908;-55
2023/09/27 07:34:20;;;;;;;;;;;22.30;89.00;;;;;;5049761;28;19951;-55
2023/09/27 07:36:46;;;;;;;;;;;22.20;88.90;;;;;;5038795;28;19909;-55
2023/09/27 07:39:13;;;;;;;;;;;22.40;91.70;;;;;;5038890;28;19967;-55
2023/09/27 07:41:40;;;;;;;;;;;22.80;84.90;;;;;;5056238;28;19904;-55
2023/09/27 07:44:09;;;;;;;;;;;22.60;85.60;;;;;;5055553;28;19908;-55
2023/09/27 07:46:36;;;;;;;;;;;22.40;84.70;;;;;;5054405;28;19932;-55
2023/09/27 07:49:02;;;;;;;;;;;22.60;83.60;;;;;;5055815;28;19913;-55
2023/09/27 07:51:28;;;;;;;;;;;22.90;82.40;;;;;;5046094;28;19959;-55
2023/09/27 07:53:54;;;;;;;;;;;23.10;82.70;;;;;;5037304;28;19909;-56
2023/09/27 07:56:20;;;;;;;;;;;23.00;80.70;;;;;;5055563;28;19911;-55
2023/09/27 07:58:49;;;;;;;;;;;23.00;80.20;;;;;;5055421;28;20247;-55
2023/09/27 08:01:20;;;;;;;;;;;23.20;79.30;;;;;;5054985;28;19915;-55
2023/09/27 08:04:05;;;;;;;;;;;23.40;76.90;;;;;;5052304;28;19949;-55
2023/09/27 08:06:33;;;;;;;;;;;23.40;78.50;;;;;;5044534;28;19912;-55
2023/09/27 08:09:00;;;;;;;;;;;23.70;77.90;;;;;;5038886;28;19948;-55
2023/09/27 08:11:25;;;;;;;;;;;24.10;76.80;;;;;;5055099;28;19914;-55
2023/09/27 08:13:51;;;;;;;;;;;24.60;73.80;;;;;;5053466;28;19916;-55
2023/09/27 08:16:18;;;;;;;;;;;24.60;73.00;;;;;;5056066;28;19923;-55
2023/09/27 08:18:44;;;;;;;;;;;25.20;72.20;;;;;;5054715;28;20296;-55
2023/09/27 08:21:10;;;;;;;;;;;25.60;70.10;;;;;;5048715;28;19999;-55
2023/09/27 08:23:36;;;;;;;;;;;25.20;69.20;;;;;;5040789;28;19909;-56
2023/09/27 08:26:02;;;;;;;;;;;25.60;69.00;;;;;;5041586;28;20011;-55
2023/09/27 08:28:29;;;;;;;;;;;25.50;68.40;;;;;;5054597;28;19908;-55
2023/09/27 08:30:58;;;;;;;;;;;26.10;67.00;;;;;;5055145;28;19957;-55
2023/09/27 08:33:24;;;;;;;;;;;25.90;66.30;;;;;;5051144;28;19915;-55
2023/09/27 08:35:53;;;;;;;;;;;25.90;65.40;;;;;;5054303;28;19971;-55
2023/09/27 08:38:19;;;;;;;;;;;25.70;65.60;;;;;;5033620;28;19909;-55
2023/09/27 08:40:48;;;;;;;;;;;26.20;68.60;;;;;;5034900;28;20544;-55
2023/09/27 08:43:17;;;;;;;;;;;26.40;64.40;;;;;;5033576;28;19909;-56
2023/09/27 08:45:45;;;;;;;;;;;26.40;65.60;;;;;;5038243;28;20064;-56
2023/09/27 08:48:13;;;;;;;;;;;26.70;63.30;;;;;;5052163;28;19908;-56
2023/09/27 08:50:40;;;;;;;;;;;27.10;61.90;;;;;;5042724;28;20254;-55
2023/09/27 08:53:06;;;;;;;;;;;27.40;63.70;;;;;;5044765;28;19962;-56
2023/09/27 08:55:32;;;;;;;;;;;27.60;60.00;;;;;;5042973;28;20366;-55
2023/09/27 08:57:59;;;;;;;;;;;27.30;59.40;;;;;;5040758;28;19916;-56
2023/09/27 09:00:26;;;;;;;;;;;27.40;58.80;;;;;;5057328;28;19930;-56
2023/09/27 09:02:56;;;;;;;;;;;28.00;58.70;;;;;;5058553;28;19909;-55
2023/09/27 09:05:24;;;;;;;;;;;27.50;59.90;;;;;;5058085;28;19913;-55
2023/09/27 09:07:52;;;;;;;;;;;28.30;59.60;;;;;;5039766;28;19944;-56
2023/09/27 09:10:18;;;;;;;;;;;28.60;57.10;;;;;;5055208;28;19966;-56
2023/09/27 09:12:45;;;;;;;;;;;29.00;54.50;;;;;;5058088;28;19909;-55
2023/09/27 09:15:15;;;;;;;;;;;29.00;53.40;;;;;;5058653;28;19928;-55
2023/09/27 09:17:47;;;;;;;;;;;28.50;54.60;;;;;;5058303;28;19909;-56
2023/09/27 09:22:50;;;;;;;;;;;28.60;51.80;;;;;;5050686;28;19989;-55
2023/09/27 09:25:16;;;;;;;;;;;28.80;52.30;;;;;;5049495;28;19909;-55
2023/09/27 09:27:41;;;;;;;;;;;29.00;51.40;;;;;;5039949;28;19909;-56
2023/09/27 09:30:11;;;;;;;;;;;29.00;52.60;;;;;;5058587;28;19916;-56
2023/09/27 09:32:47;;;;;;;;;;;29.50;40.80;;;;;;5058422;28;19912;-56
2023/09/27 09:35:27;;;;;;;;;;;28.70;40.00;;;;;;5050779;28;19913;-56
2023/09/27 09:37:53;;;;;;;;;;;29.20;36.00;;;;;;5038366;28;20277;-56
2023/09/27 09:40:19;;;;;;;;;;;29.00;39.90;;;;;;5038249;28;19909;-55
2023/09/27 09:42:49;;;;;;;;;;;29.50;45.40;;;;;;5038017;28;19979;-56
2023/09/27 09:45:15;;;;;;;;;;;29.70;43.50;;;;;;5038363;28;19909;-56
2023/09/27 09:47:43;;;;;;;;;;;29.10;35.10;;;;;;5038002;28;20044;-56
2023/09/27 09:50:16;;;;;;;;;;;29.10;35.80;;;;;;5038151;28;19909;-56
2023/09/27 09:52:49;;;;;;;;;;;29.10;35.10;;;;;;5038025;28;19913;-56
2023/09/27 09:55:19;;;;;;;;;;;29.30;33.10;;;;;;5038110;28;19935;-56
2023/09/27 09:57:46;;;;;;;;;;;29.60;32.60;;;;;;5039255;28;19940;-56
2023/09/27 10:00:16;;;;;;;;;;;28.80;33.50;;;;;;5067267;28;20372;-56
2023/09/27 10:02:47;;;;;;;;;;;29.20;34.30;;;;;;5057750;28;19913;-56
2023/09/27 10:05:13;;;;;;;;;;;30.00;30.80;;;;;;5057853;28;19995;-56
2023/09/27 10:07:40;;;;;;;;;;;30.10;31.60;;;;;;5057989;28;20357;-56
2023/09/27 10:10:08;;;;;;;;;;;30.30;30.90;;;;;;5057906;28;19908;-56
2023/09/27 10:12:34;;;;;;;;;;;30.40;29.70;;;;;;5040174;28;19919;-56
2023/09/27 10:15:01;;;;;;;;;;;30.40;30.30;;;;;;5058526;28;19995;-56
2023/09/27 10:17:29;;;;;;;;;;;28.80;30.10;;;;;;5055466;28;19909;-56
2023/09/27 10:20:15;;;;;;;;;;;28.80;33.20;;;;;;5057800;28;19930;-56
2023/09/27 10:22:41;;;;;;;;;;;29.90;33.70;;;;;;5057902;28;19959;-56
2023/09/27 10:25:30;;;;;;;;;;;30.50;31.20;;;;;;5056929;28;19913;-56
2023/09/27 10:27:59;;;;;;;;;;;30.90;30.80;;;;;;5058099;28;19912;-56
2023/09/27 10:30:25;;;;;;;;;;;31.30;31.50;;;;;;5050724;28;19909;-56
2023/09/27 10:33:10;;;;;;;;;;;31.30;29.50;;;;;;5049679;28;19913;-56
2023/09/27 10:35:35;;;;;;;;;;;31.50;29.00;;;;;;5057807;28;19909;-56
2023/09/27 10:38:08;;;;;;;;;;;31.10;28.80;;;;;;5057694;28;19930;-56
2023/09/27 10:40:43;;;;;;;;;;;31.10;30.40;;;;;;5057839;28;19956;-56
2023/09/27 10:43:10;;;;;;;;;;;31.40;28.80;;;;;;5057396;28;19951;-56
2023/09/27 10:45:35;;;;;;;;;;;30.80;28.50;;;;;;5057548;28;19908;-56
2023/09/27 10:48:15;;;;;;;;;;;30.50;27.70;;;;;;5057159;28;19909;-56
2023/09/27 10:50:50;;;;;;;;;;;30.70;28.80;;;;;;5056969;28;19938;-56
2023/09/27 10:53:16;;;;;;;;;;;31.50;28.10;;;;;;5022948;28;20388;-56
2023/09/27 10:55:42;;;;;;;;;;;31.40;27.90;;;;;;5056853;28;19913;-56
2023/09/27 10:58:11;;;;;;;;;;;31.10;27.70;;;;;;5056738;28;19940;-56
2023/09/27 11:00:48;;;;;;;;;;;31.20;27.40;;;;;;5056921;28;19908;-56
2023/09/27 11:03:15;;;;;;;;;;;30.90;27.40;;;;;;5056227;28;20007;-56
2023/09/27 11:05:41;;;;;;;;;;;31.20;27.80;;;;;;5056331;28;19952;-56
2023/09/27 11:08:06;;;;;;;;;;;31.50;28.10;;;;;;5056513;28;20366;-56
2023/09/27 11:10:33;;;;;;;;;;;31.40;26.90;;;;;;5056055;28;20285;-56
2023/09/27 11:13:12;;;;;;;;;;;31.00;27.10;;;;;;5050871;28;20023;-56
2023/09/27 11:15:39;;;;;;;;;;;30.10;27.70;;;;;;5054079;28;20297;-56
2023/09/27 11:18:06;;;;;;;;;;;30.60;27.40;;;;;;5054500;28;20003;-56
2023/09/27 11:20:31;;;;;;;;;;;30.40;28.90;;;;;;5045090;28;19909;-56
2023/09/27 11:22:58;;;;;;;;;;;30.50;27.20;;;;;;5047394;28;19917;-56
2023/09/27 11:25:28;;;;;;;;;;;30.80;27.60;;;;;;5047403;28;19908;-56
2023/09/27 11:27:54;;;;;;;;;;;29.50;28.40;;;;;;5036898;28;20043;-56
2023/09/27 11:30:38;;;;;;;;;;;29.80;29.40;;;;;;5035982;28;19955;-56
2023/09/27 11:33:08;;;;;;;;;;;30.00;29.00;;;;;;5038958;28;20000;-56
2023/09/27 11:35:34;;;;;;;;;;;30.40;29.00;;;;;;5056064;28;19931;-56
2023/09/27 11:38:10;;;;;;;;;;;28.90;29.70;;;;;;5055940;28;19909;-56
2023/09/27 11:40:37;;;;;;;;;;;29.30;29.60;;;;;;5055739;28;19909;-56
2023/09/27 11:43:04;;;;;;;;;;;30.00;30.40;;;;;;5055923;28;19970;-56
2023/09/27 11:45:41;;;;;;;;;;;29.80;32.60;;;;;;5056157;28;19952;-56
2023/09/27 11:48:07;;;;;;;;;;;30.70;30.10;;;;;;5055780;28;19912;-56
2023/09/27 11:50:32;;;;;;;;;;;30.70;27.50;;;;;;5055651;28;19920;-57
2023/09/27 11:52:59;;;;;;;;;;;30.80;28.10;;;;;;5050125;28;19909;-56
2023/09/27 11:55:26;;;;;;;;;;;30.50;26.90;;;;;;5055983;28;19909;-56
2023/09/27 11:57:56;;;;;;;;;;;30.80;28.20;;;;;;5048345;28;19955;-56
2023/09/27 12:00:22;;;;;;;;;;;30.70;29.20;;;;;;5057468;28;19908;-56
2023/09/27 12:02:48;;;;;;;;;;;31.10;27.30;;;;;;5055279;28;19916;-56
2023/09/27 12:05:15;;;;;;;;;;;30.20;26.40;;;;;;5054819;28;19965;-56
2023/09/27 12:07:41;;;;;;;;;;;30.00;28.00;;;;;;5055611;28;19913;-56
2023/09/27 12:10:07;;;;;;;;;;;30.30;26.10;;;;;;5054892;28;19912;-56
2023/09/27 12:12:33;;;;;;;;;;;30.30;27.30;;;;;;5053786;28;19927;-56
2023/09/27 12:15:00;;;;;;;;;;;30.60;29.00;;;;;;5055770;28;20360;-56
2023/09/27 12:17:27;;;;;;;;;;;30.90;26.00;;;;;;5055376;28;20278;-56
2023/09/27 12:19:53;;;;;;;;;;;29.60;27.70;;;;;;5055049;28;20218;-56
2023/09/27 12:22:20;;;;;;;;;;;30.50;27.20;;;;;;5055300;28;19909;-57
2023/09/27 12:24:47;;;;;;;;;;;29.90;26.10;;;;;;5055554;28;19911;-56
2023/09/27 12:27:12;;;;;;;;;;;29.90;27.00;;;;;;5055521;28;19908;-56
2023/09/27 12:29:38;;;;;;;;;;;30.20;26.60;;;;;;5037395;28;19944;-56
2023/09/27 12:32:05;;;;;;;;;;;29.00;26.40;;;;;;5056606;28;19935;-56
2023/09/27 12:34:31;;;;;;;;;;;29.10;28.20;;;;;;5058497;28;19952;-56
2023/09/27 12:36:57;;;;;;;;;;;28.80;29.30;;;;;;5050605;28;19962;-56
2023/09/27 12:39:23;;;;;;;;;;;28.70;29.10;;;;;;5039917;28;20282;-56
2023/09/27 12:41:49;;;;;;;;;;;29.50;27.90;;;;;;5039361;28;19905;-56
2023/09/27 12:44:15;;;;;;;;;;;29.80;28.10;;;;;;5039563;28;19916;-56
2023/09/27 12:46:40;;;;;;;;;;;30.00;28.20;;;;;;5039732;28;19912;-56
2023/09/27 12:49:07;;;;;;;;;;;30.20;27.50;;;;;;5038732;28;19909;-57
2023/09/27 12:51:33;;;;;;;;;;;30.50;28.70;;;;;;5051731;28;19940;-56
2023/09/27 12:53:58;;;;;;;;;;;30.70;27.90;;;;;;5054345;28;20050;-56
2023/09/27 12:56:24;;;;;;;;;;;30.70;26.10;;;;;;5050459;28;19916;-56
2023/09/27 12:58:50;;;;;;;;;;;30.40;26.50;;;;;;5053298;28;19909;-56
2023/09/27 13:01:16;;;;;;;;;;;30.10;26.80;;;;;;5052374;28;19913;-56
2023/09/27 13:03:42;;;;;;;;;;;30.20;27.30;;;;;;5039698;28;19995;-56
2023/09/27 13:06:09;;;;;;;;;;;30.40;26.70;;;;;;5039184;28;19963;-56
2023/09/27 13:08:34;;;;;;;;;;;29.80;27.10;;;;;;5038774;28;20418;-56
2023/09/27 13:11:01;;;;;;;;;;;30.30;27.80;;;;;;5038613;28;19944;-56
2023/09/27 13:13:28;;;;;;;;;;;30.50;26.80;;;;;;5039388;28;20000;-56
2023/09/27 13:15:55;;;;;;;;;;;30.30;27.40;;;;;;5039237;28;19909;-56
2023/09/27 13:18:20;;;;;;;;;;;30.60;27.80;;;;;;5039250;28;19909;-56
2023/09/27 13:20:46;;;;;;;;;;;30.60;26.40;;;;;;5039208;28;19999;-56
2023/09/27 13:23:12;;;;;;;;;;;30.70;27.30;;;;;;5036859;28;19908;-56
2023/09/27 13:25:38;;;;;;;;;;;31.00;27.30;;;;;;5038668;28;19943;-56
2023/09/27 13:28:04;;;;;;;;;;;30.90;26.90;;;;;;5036602;28;20208;-56
2023/09/27 13:30:32;;;;;;;;;;;30.50;26.00;;;;;;5037483;28;20015;-56
2023/09/27 13:32:59;;;;;;;;;;;30.50;26.30;;;;;;5037932;28;19905;-57
2023/09/27 13:35:25;;;;;;;;;;;30.50;27.30;;;;;;5038251;28;19909;-56
2023/09/27 13:37:51;;;;;;;;;;;30.40;26.40;;;;;;5038553;28;20425;-57
2023/09/27 13:40:17;;;;;;;;;;;30.20;26.80;;;;;;5038466;28;19948;-57
2023/09/27 13:42:43;;;;;;;;;;;29.60;25.50;;;;;;5037924;28;19913;-57
2023/09/27 13:45:12;;;;;;;;;;;29.10;26.50;;;;;;5037351;28;19909;-57
2023/09/27 13:47:38;;;;;;;;;;;29.10;26.70;;;;;;5038779;28;19909;-57
2023/09/27 13:50:05;;;;;;;;;;;29.30;27.30;;;;;;5038480;28;19912;-57
2023/09/27 13:52:32;;;;;;;;;;;28.80;28.00;;;;;;5038291;28;19917;-57
2023/09/27 13:54:58;;;;;;;;;;;28.90;27.50;;;;;;5038294;28;20274;-57
2023/09/27 13:57:24;;;;;;;;;;;29.20;27.80;;;;;;5037903;28;19909;-57
2023/09/27 13:59:50;;;;;;;;;;;28.80;28.40;;;;;;5074033;28;19915;-57
2023/09/27 14:02:16;;;;;;;;;;;29.20;29.00;;;;;;5078117;28;20354;-57
2023/09/27 14:04:45;;;;;;;;;;;28.80;28.20;;;;;;5078069;28;19909;-57
2023/09/27 14:07:11;;;;;;;;;;;28.40;29.50;;;;;;5077884;28;19912;-57
2023/09/27 14:09:37;;;;;;;;;;;28.60;28.70;;;;;;5078304;28;19909;-57
2023/09/27 14:12:05;;;;;;;;;;;28.70;29.30;;;;;;5077721;28;19912;-57
2023/09/27 14:14:32;;;;;;;;;;;28.30;28.10;;;;;;5077905;28;20335;-57
2023/09/27 14:16:58;;;;;;;;;;;28.10;28.60;;;;;;5077856;28;19909;-57
2023/09/27 14:19:25;;;;;;;;;;;27.60;27.90;;;;;;5077720;28;19915;-57